sensor_id;sensor_type;location;lat;lon;timestamp;P1;durP1;ratioP1;P2;durP2;ratioP2
31095;SDS011;17749;51.962;8.560;2022-12-18T06:01:55;11.35;;;5.47;;
31095;SDS011;17749;51.962;8.560;2022-12-18T06:04:25;10.30;;;5.20;;
31095;SDS011;17749;51.962;8.560;2022-12-18T06:07:04;9.40;;;5.53;;
31095;SDS011;17749;51.962;8.560;2022-12-18T06:09:37;14.15;;;6.80;;
31095;SDS011;17749;51.962;8.560;2022-12-18T06:12:24;9.82;;;5.47;;
31095;SDS011;17749;51.962;8.560;2022-12-18T06:14:59;10.60;;;5.47;;
31095;SDS011;17749;51.962;8.560;2022-12-18T06:17:36;11.77;;;4.82;;
31095;SDS011;17749;51.962;8.560;2022-12-18T06:20:11;8.45;;;4.85;;
31095;SDS011;17749;51.962;8.560;2022-12-18T06:22:45;11.40;;;5.72;;
31095;SDS011;17749;51.962;8.560;2022-12-18T06:25:20;12.52;;;5.53;;
31095;SDS011;17749;51.962;8.560;2022-12-18T06:28:20;10.80;;;5.97;;
31095;SDS011;17749;51.962;8.560;2022-12-18T06:33:50;19.52;;;7.80;;
31095;SDS011;17749;51.962;8.560;2022-12-18T06:36:33;18.50;;;8.45;;
31095;SDS011;17749;51.962;8.560;2022-12-18T06:39:12;17.80;;;9.52;;
31095;SDS011;17749;51.962;8.560;2022-12-18T06:42:13;19.75;;;10.02;;
31095;SDS011;17749;51.962;8.560;2022-12-18T06:45:08;16.58;;;8.35;;
31095;SDS011;17749;51.962;8.560;2022-12-18T06:48:04;12.75;;;7.53;;
31095;SDS011;17749;51.962;8.560;2022-12-18T06:50:48;19.35;;;8.20;;
31095;SDS011;17749;51.962;8.560;2022-12-18T06:53:50;16.10;;;7.53;;
31095;SDS011;17749;51.962;8.560;2022-12-18T06:57:17;11.52;;;5.60;;
31095;SDS011;17749;51.962;8.560;2022-12-18T07:03:14;11.55;;;6.00;;
31095;SDS011;17749;51.962;8.560;2022-12-18T07:06:35;11.60;;;4.80;;
31095;SDS011;17749;51.962;8.560;2022-12-18T07:16:12;11.50;;;5.32;;
31095;SDS011;17749;51.962;8.560;2022-12-18T07:19:30;8.38;;;4.50;;
31095;SDS011;17749;51.962;8.560;2022-12-18T07:22:45;9.80;;;5.25;;
31095;SDS011;17749;51.962;8.560;2022-12-18T07:25:35;10.55;;;4.53;;
31095;SDS011;17749;51.962;8.560;2022-12-18T07:28:31;10.02;;;5.00;;
31095;SDS011;17749;51.962;8.560;2022-12-18T07:38:18;10.27;;;4.88;;
31095;SDS011;17749;51.962;8.560;2022-12-18T07:41:10;8.52;;;4.32;;
31095;SDS011;17749;51.962;8.560;2022-12-18T07:44:01;9.90;;;4.45;;
31095;SDS011;17749;51.962;8.560;2022-12-18T07:47:29;12.05;;;4.88;;
31095;SDS011;17749;51.962;8.560;2022-12-18T07:50:15;10.25;;;4.80;;
31095;SDS011;17749;51.962;8.560;2022-12-18T07:53:14;10.05;;;4.97;;
31095;SDS011;17749;51.962;8.560;2022-12-18T07:55:47;8.25;;;4.45;;
31095;SDS011;17749;51.962;8.560;2022-12-18T08:02:25;9.65;;;4.82;;
31095;SDS011;17749;51.962;8.560;2022-12-18T08:04:52;9.68;;;5.10;;
31095;SDS011;17749;51.962;8.560;2022-12-18T08:07:20;11.85;;;5.13;;
31095;SDS011;17749;51.962;8.560;2022-12-18T08:09:50;8.68;;;4.25;;
31095;SDS011;17749;51.962;8.560;2022-12-18T08:12:16;13.38;;;4.95;;
31095;SDS011;17749;51.962;8.560;2022-12-18T08:14:43;9.63;;;4.85;;
31095;SDS011;17749;51.962;8.560;2022-12-18T08:17:11;16.40;;;6.65;;
31095;SDS011;17749;51.962;8.560;2022-12-18T08:19:56;9.55;;;5.65;;
31095;SDS011;17749;51.962;8.560;2022-12-18T08:27:37;6.88;;;4.40;;
31095;SDS011;17749;51.962;8.560;2022-12-18T08:30:04;10.80;;;5.13;;
31095;SDS011;17749;51.962;8.560;2022-12-18T08:32:32;8.98;;;4.88;;
31095;SDS011;17749;51.962;8.560;2022-12-18T08:34:59;11.10;;;5.05;;
31095;SDS011;17749;51.962;8.560;2022-12-18T08:37:26;12.05;;;5.40;;
31095;SDS011;17749;51.962;8.560;2022-12-18T08:39:53;8.52;;;4.55;;
31095;SDS011;17749;51.962;8.560;2022-12-18T08:42:20;8.35;;;4.00;;
31095;SDS011;17749;51.962;8.560;2022-12-18T08:45:06;11.02;;;5.35;;
31095;SDS011;17749;51.962;8.560;2022-12-18T08:47:33;8.90;;;4.68;;
31095;SDS011;17749;51.962;8.560;2022-12-18T08:49:59;10.60;;;4.65;;
31095;SDS011;17749;51.962;8.560;2022-12-18T08:52:26;7.82;;;4.63;;
31095;SDS011;17749;51.962;8.560;2022-12-18T08:54:54;9.63;;;5.32;;
31095;SDS011;17749;51.962;8.560;2022-12-18T08:57:21;11.95;;;5.65;;
31095;SDS011;17749;51.962;8.560;2022-12-18T08:59:47;9.70;;;5.35;;
31095;SDS011;17749;51.962;8.560;2022-12-18T09:02:14;11.18;;;5.25;;
31095;SDS011;17749;51.962;8.560;2022-12-18T09:04:41;10.20;;;4.93;;
31095;SDS011;17749;51.962;8.560;2022-12-18T09:07:09;10.98;;;5.60;;
31095;SDS011;17749;51.962;8.560;2022-12-18T09:09:35;15.10;;;5.38;;
31095;SDS011;17749;51.962;8.560;2022-12-18T09:12:02;11.25;;;5.10;;
31095;SDS011;17749;51.962;8.560;2022-12-18T09:14:29;9.38;;;4.80;;
31095;SDS011;17749;51.962;8.560;2022-12-18T09:16:56;8.32;;;4.60;;
31095;SDS011;17749;51.962;8.560;2022-12-18T09:19:23;10.50;;;5.28;;
31095;SDS011;17749;51.962;8.560;2022-12-18T09:21:50;8.00;;;4.68;;
31095;SDS011;17749;51.962;8.560;2022-12-18T09:24:17;9.18;;;4.78;;
31095;SDS011;17749;51.962;8.560;2022-12-18T09:26:44;8.68;;;5.20;;
31095;SDS011;17749;51.962;8.560;2022-12-18T09:29:13;9.55;;;4.60;;
31095;SDS011;17749;51.962;8.560;2022-12-18T09:31:44;10.38;;;5.15;;
31095;SDS011;17749;51.962;8.560;2022-12-18T09:34:11;7.90;;;4.63;;
31095;SDS011;17749;51.962;8.560;2022-12-18T09:36:38;10.13;;;6.05;;
31095;SDS011;17749;51.962;8.560;2022-12-18T09:39:05;12.82;;;5.53;;
31095;SDS011;17749;51.962;8.560;2022-12-18T09:41:53;10.30;;;5.03;;
31095;SDS011;17749;51.962;8.560;2022-12-18T09:44:23;12.20;;;5.82;;
31095;SDS011;17749;51.962;8.560;2022-12-18T09:47:39;9.82;;;5.70;;
31095;SDS011;17749;51.962;8.560;2022-12-18T09:49:48;10.15;;;5.03;;
31095;SDS011;17749;51.962;8.560;2022-12-18T09:52:20;8.93;;;4.97;;
31095;SDS011;17749;51.962;8.560;2022-12-18T09:54:56;11.50;;;5.50;;
31095;SDS011;17749;51.962;8.560;2022-12-18T09:57:28;8.15;;;4.45;;
31095;SDS011;17749;51.962;8.560;2022-12-18T10:00:14;13.48;;;5.57;;
31095;SDS011;17749;51.962;8.560;2022-12-18T10:02:45;10.98;;;5.10;;
31095;SDS011;17749;51.962;8.560;2022-12-18T10:05:13;10.18;;;5.05;;
31095;SDS011;17749;51.962;8.560;2022-12-18T10:10:34;10.82;;;5.32;;
31095;SDS011;17749;51.962;8.560;2022-12-18T10:26:50;9.18;;;5.65;;
31095;SDS011;17749;51.962;8.560;2022-12-18T10:29:19;12.98;;;6.40;;
31095;SDS011;17749;51.962;8.560;2022-12-18T10:31:46;9.95;;;5.25;;
31095;SDS011;17749;51.962;8.560;2022-12-18T10:34:13;11.23;;;5.05;;
31095;SDS011;17749;51.962;8.560;2022-12-18T10:36:40;9.60;;;4.68;;
31095;SDS011;17749;51.962;8.560;2022-12-18T10:39:41;9.07;;;4.53;;
31095;SDS011;17749;51.962;8.560;2022-12-18T10:42:10;8.05;;;4.80;;
31095;SDS011;17749;51.962;8.560;2022-12-18T10:44:43;10.00;;;4.95;;
31095;SDS011;17749;51.962;8.560;2022-12-18T10:47:12;8.77;;;4.25;;
31095;SDS011;17749;51.962;8.560;2022-12-18T10:49:47;7.97;;;4.47;;
31095;SDS011;17749;51.962;8.560;2022-12-18T10:54:57;8.88;;;4.35;;
31095;SDS011;17749;51.962;8.560;2022-12-18T10:57:29;7.65;;;4.30;;
31095;SDS011;17749;51.962;8.560;2022-12-18T10:59:57;7.57;;;4.15;;
31095;SDS011;17749;51.962;8.560;2022-12-18T11:05:08;10.10;;;4.38;;
31095;SDS011;17749;51.962;8.560;2022-12-18T11:07:51;8.55;;;4.38;;
31095;SDS011;17749;51.962;8.560;2022-12-18T11:10:21;8.95;;;4.03;;
31095;SDS011;17749;51.962;8.560;2022-12-18T11:12:54;8.40;;;4.45;;
31095;SDS011;17749;51.962;8.560;2022-12-18T11:15:24;9.30;;;3.83;;
31095;SDS011;17749;51.962;8.560;2022-12-18T11:17:56;6.95;;;4.00;;
31095;SDS011;17749;51.962;8.560;2022-12-18T11:20:33;8.88;;;4.75;;
31095;SDS011;17749;51.962;8.560;2022-12-18T11:23:04;13.80;;;4.80;;
31095;SDS011;17749;51.962;8.560;2022-12-18T11:25:36;7.55;;;4.47;;
31095;SDS011;17749;51.962;8.560;2022-12-18T11:28:06;8.23;;;3.67;;
31095;SDS011;17749;51.962;8.560;2022-12-18T11:33:50;10.13;;;5.43;;
31095;SDS011;17749;51.962;8.560;2022-12-18T11:36:51;6.20;;;3.72;;
31095;SDS011;17749;51.962;8.560;2022-12-18T11:45:02;7.28;;;3.70;;
31095;SDS011;17749;51.962;8.560;2022-12-18T11:48:10;9.55;;;4.03;;
31095;SDS011;17749;51.962;8.560;2022-12-18T11:50:48;6.90;;;3.75;;
31095;SDS011;17749;51.962;8.560;2022-12-18T11:53:17;7.72;;;3.97;;
31095;SDS011;17749;51.962;8.560;2022-12-18T12:17:30;12.77;;;6.93;;
31095;SDS011;17749;51.962;8.560;2022-12-18T12:20:21;8.35;;;4.15;;
31095;SDS011;17749;51.962;8.560;2022-12-18T12:25:37;8.90;;;4.57;;
31095;SDS011;17749;51.962;8.560;2022-12-18T12:33:45;8.55;;;4.07;;
31095;SDS011;17749;51.962;8.560;2022-12-18T12:39:08;9.27;;;5.32;;
31095;SDS011;17749;51.962;8.560;2022-12-18T12:41:42;9.27;;;4.57;;
31095;SDS011;17749;51.962;8.560;2022-12-18T12:44:34;8.55;;;6.10;;
31095;SDS011;17749;51.962;8.560;2022-12-18T12:47:15;25.48;;;11.38;;
31095;SDS011;17749;51.962;8.560;2022-12-18T12:49:47;8.87;;;4.93;;
31095;SDS011;17749;51.962;8.560;2022-12-18T12:55:04;10.73;;;4.28;;
31095;SDS011;17749;51.962;8.560;2022-12-18T12:57:41;11.07;;;4.20;;
31095;SDS011;17749;51.962;8.560;2022-12-18T13:00:14;11.15;;;5.07;;
31095;SDS011;17749;51.962;8.560;2022-12-18T13:05:38;32.88;;;29.88;;
31095;SDS011;17749;51.962;8.560;2022-12-18T13:08:12;8.45;;;5.72;;
31095;SDS011;17749;51.962;8.560;2022-12-18T13:10:59;8.57;;;4.72;;
31095;SDS011;17749;51.962;8.560;2022-12-18T13:13:53;8.30;;;3.67;;
31095;SDS011;17749;51.962;8.560;2022-12-18T13:16:24;4.97;;;3.35;;
31095;SDS011;17749;51.962;8.560;2022-12-18T13:18:54;6.32;;;3.63;;
31095;SDS011;17749;51.962;8.560;2022-12-18T13:21:30;6.03;;;3.42;;
31095;SDS011;17749;51.962;8.560;2022-12-18T13:24:15;9.35;;;4.43;;
31095;SDS011;17749;51.962;8.560;2022-12-18T13:26:52;10.40;;;4.28;;
31095;SDS011;17749;51.962;8.560;2022-12-18T13:32:22;11.40;;;4.10;;
31095;SDS011;17749;51.962;8.560;2022-12-18T13:37:52;11.50;;;5.45;;
31095;SDS011;17749;51.962;8.560;2022-12-18T13:43:22;5.72;;;3.58;;
31095;SDS011;17749;51.962;8.560;2022-12-18T13:48:51;8.38;;;4.18;;
31095;SDS011;17749;51.962;8.560;2022-12-18T13:51:27;7.78;;;3.72;;
31095;SDS011;17749;51.962;8.560;2022-12-18T13:56:32;7.37;;;3.90;;
31095;SDS011;17749;51.962;8.560;2022-12-18T14:01:52;12.75;;;4.88;;
31095;SDS011;17749;51.962;8.560;2022-12-18T14:04:30;7.03;;;3.47;;
31095;SDS011;17749;51.962;8.560;2022-12-18T14:07:05;9.25;;;3.58;;
31095;SDS011;17749;51.962;8.560;2022-12-18T14:12:46;9.80;;;3.78;;
31095;SDS011;17749;51.962;8.560;2022-12-18T14:15:38;6.55;;;3.20;;
31095;SDS011;17749;51.962;8.560;2022-12-18T14:18:23;5.95;;;3.08;;
31095;SDS011;17749;51.962;8.560;2022-12-18T14:21:03;7.43;;;3.92;;
31095;SDS011;17749;51.962;8.560;2022-12-18T14:28:31;8.43;;;3.72;;
31095;SDS011;17749;51.962;8.560;2022-12-18T14:30:58;6.97;;;4.13;;
31095;SDS011;17749;51.962;8.560;2022-12-18T14:33:26;8.00;;;4.30;;
31095;SDS011;17749;51.962;8.560;2022-12-18T14:36:00;6.28;;;3.67;;
31095;SDS011;17749;51.962;8.560;2022-12-18T14:41:05;8.02;;;4.18;;
31095;SDS011;17749;51.962;8.560;2022-12-18T14:43:34;8.07;;;3.67;;
31095;SDS011;17749;51.962;8.560;2022-12-18T14:46:02;8.05;;;3.78;;
31095;SDS011;17749;51.962;8.560;2022-12-18T14:48:33;7.68;;;4.10;;
31095;SDS011;17749;51.962;8.560;2022-12-18T14:53:34;8.80;;;3.75;;
31095;SDS011;17749;51.962;8.560;2022-12-18T14:56:16;7.78;;;4.35;;
31095;SDS011;17749;51.962;8.560;2022-12-18T14:58:44;10.65;;;4.25;;
31095;SDS011;17749;51.962;8.560;2022-12-18T15:01:47;9.13;;;4.13;;
31095;SDS011;17749;51.962;8.560;2022-12-18T15:09:30;9.25;;;5.15;;
31095;SDS011;17749;51.962;8.560;2022-12-18T15:11:58;10.70;;;5.40;;
31095;SDS011;17749;51.962;8.560;2022-12-18T15:14:33;7.70;;;4.82;;
31095;SDS011;17749;51.962;8.560;2022-12-18T15:17:05;8.43;;;5.15;;
31095;SDS011;17749;51.962;8.560;2022-12-18T15:19:41;9.10;;;4.75;;
31095;SDS011;17749;51.962;8.560;2022-12-18T15:22:26;12.20;;;5.07;;
31095;SDS011;17749;51.962;8.560;2022-12-18T15:24:55;11.85;;;5.28;;
31095;SDS011;17749;51.962;8.560;2022-12-18T15:27:28;8.55;;;4.85;;
31095;SDS011;17749;51.962;8.560;2022-12-18T15:32:38;9.77;;;5.15;;
31095;SDS011;17749;51.962;8.560;2022-12-18T15:37:35;9.25;;;5.13;;
31095;SDS011;17749;51.962;8.560;2022-12-18T15:40:03;10.75;;;6.13;;
31095;SDS011;17749;51.962;8.560;2022-12-18T15:42:30;13.48;;;5.28;;
31095;SDS011;17749;51.962;8.560;2022-12-18T15:45:16;11.50;;;6.35;;
31095;SDS011;17749;51.962;8.560;2022-12-18T15:47:44;9.10;;;5.22;;
31095;SDS011;17749;51.962;8.560;2022-12-18T15:50:11;11.43;;;6.00;;
31095;SDS011;17749;51.962;8.560;2022-12-18T15:52:42;13.25;;;5.88;;
31095;SDS011;17749;51.962;8.560;2022-12-18T15:55:14;12.02;;;6.25;;
31095;SDS011;17749;51.962;8.560;2022-12-18T15:58:06;13.40;;;6.82;;
31095;SDS011;17749;51.962;8.560;2022-12-18T16:00:34;13.93;;;6.75;;
31095;SDS011;17749;51.962;8.560;2022-12-18T16:03:03;12.37;;;6.63;;
31095;SDS011;17749;51.962;8.560;2022-12-18T16:05:31;12.00;;;6.50;;
31095;SDS011;17749;51.962;8.560;2022-12-18T16:07:57;12.65;;;6.65;;
31095;SDS011;17749;51.962;8.560;2022-12-18T16:10:25;15.35;;;6.97;;
31095;SDS011;17749;51.962;8.560;2022-12-18T16:12:52;11.93;;;6.57;;
31095;SDS011;17749;51.962;8.560;2022-12-18T16:15:19;13.73;;;6.70;;
31095;SDS011;17749;51.962;8.560;2022-12-18T16:17:50;15.95;;;7.43;;
31095;SDS011;17749;51.962;8.560;2022-12-18T16:20:21;13.65;;;6.32;;
31095;SDS011;17749;51.962;8.560;2022-12-18T16:22:49;12.75;;;6.55;;
31095;SDS011;17749;51.962;8.560;2022-12-18T16:25:20;17.52;;;8.80;;
31095;SDS011;17749;51.962;8.560;2022-12-18T16:27:48;13.07;;;7.45;;
31095;SDS011;17749;51.962;8.560;2022-12-18T16:30:21;10.85;;;6.85;;
31095;SDS011;17749;51.962;8.560;2022-12-18T16:32:49;11.95;;;7.20;;
31095;SDS011;17749;51.962;8.560;2022-12-18T16:35:16;13.68;;;6.85;;
31095;SDS011;17749;51.962;8.560;2022-12-18T16:37:43;14.13;;;7.07;;
31095;SDS011;17749;51.962;8.560;2022-12-18T16:40:11;17.90;;;8.23;;
31095;SDS011;17749;51.962;8.560;2022-12-18T16:42:40;13.20;;;6.93;;
31095;SDS011;17749;51.962;8.560;2022-12-18T16:45:10;13.37;;;7.93;;
31095;SDS011;17749;51.962;8.560;2022-12-18T16:47:44;16.15;;;8.70;;
31095;SDS011;17749;51.962;8.560;2022-12-18T16:50:11;17.33;;;8.25;;
31095;SDS011;17749;51.962;8.560;2022-12-18T16:52:38;14.30;;;7.95;;
31095;SDS011;17749;51.962;8.560;2022-12-18T16:55:06;13.93;;;7.93;;
31095;SDS011;17749;51.962;8.560;2022-12-18T16:57:33;19.15;;;9.25;;
31095;SDS011;17749;51.962;8.560;2022-12-18T17:00:00;15.25;;;7.47;;
31095;SDS011;17749;51.962;8.560;2022-12-18T17:02:31;14.27;;;7.90;;
31095;SDS011;17749;51.962;8.560;2022-12-18T17:04:58;17.55;;;7.97;;
31095;SDS011;17749;51.962;8.560;2022-12-18T17:07:25;18.45;;;9.07;;
31095;SDS011;17749;51.962;8.560;2022-12-18T17:09:53;19.55;;;8.30;;
31095;SDS011;17749;51.962;8.560;2022-12-18T17:12:21;18.35;;;9.00;;
31095;SDS011;17749;51.962;8.560;2022-12-18T17:14:48;15.82;;;8.07;;
31095;SDS011;17749;51.962;8.560;2022-12-18T17:17:15;23.88;;;9.48;;
31095;SDS011;17749;51.962;8.560;2022-12-18T17:19:48;19.67;;;10.07;;
31095;SDS011;17749;51.962;8.560;2022-12-18T17:22:16;18.20;;;9.00;;
31095;SDS011;17749;51.962;8.560;2022-12-18T17:24:43;19.65;;;8.65;;
31095;SDS011;17749;51.962;8.560;2022-12-18T17:27:10;21.92;;;9.38;;
31095;SDS011;17749;51.962;8.560;2022-12-18T17:29:37;16.67;;;8.48;;
31095;SDS011;17749;51.962;8.560;2022-12-18T17:32:12;18.23;;;9.32;;
31095;SDS011;17749;51.962;8.560;2022-12-18T17:34:39;14.77;;;8.38;;
31095;SDS011;17749;51.962;8.560;2022-12-18T17:37:06;19.60;;;8.70;;
31095;SDS011;17749;51.962;8.560;2022-12-18T17:39:33;22.33;;;9.40;;
31095;SDS011;17749;51.962;8.560;2022-12-18T17:42:00;18.83;;;9.77;;
31095;SDS011;17749;51.962;8.560;2022-12-18T17:44:27;19.52;;;9.25;;
31095;SDS011;17749;51.962;8.560;2022-12-18T17:46:54;17.20;;;9.48;;
31095;SDS011;17749;51.962;8.560;2022-12-18T17:49:21;22.55;;;10.50;;
31095;SDS011;17749;51.962;8.560;2022-12-18T17:51:48;22.05;;;10.63;;
31095;SDS011;17749;51.962;8.560;2022-12-18T17:54:15;21.23;;;9.15;;
31095;SDS011;17749;51.962;8.560;2022-12-18T17:56:42;20.63;;;9.88;;
31095;SDS011;17749;51.962;8.560;2022-12-18T17:59:10;17.70;;;10.32;;
31095;SDS011;17749;51.962;8.560;2022-12-18T18:01:37;17.75;;;9.95;;
31095;SDS011;17749;51.962;8.560;2022-12-18T18:04:10;19.17;;;10.02;;
31095;SDS011;17749;51.962;8.560;2022-12-18T18:06:38;20.25;;;10.05;;
31095;SDS011;17749;51.962;8.560;2022-12-18T18:09:08;21.83;;;10.40;;
31095;SDS011;17749;51.962;8.560;2022-12-18T18:11:43;19.40;;;9.60;;
31095;SDS011;17749;51.962;8.560;2022-12-18T18:14:29;19.83;;;10.43;;
31095;SDS011;17749;51.962;8.560;2022-12-18T18:16:56;20.50;;;10.07;;
31095;SDS011;17749;51.962;8.560;2022-12-18T18:19:30;18.77;;;10.15;;
31095;SDS011;17749;51.962;8.560;2022-12-18T18:21:58;23.65;;;11.82;;
31095;SDS011;17749;51.962;8.560;2022-12-18T18:24:26;26.75;;;11.48;;
31095;SDS011;17749;51.962;8.560;2022-12-18T18:26:53;22.20;;;11.90;;
31095;SDS011;17749;51.962;8.560;2022-12-18T18:29:22;25.60;;;11.82;;
31095;SDS011;17749;51.962;8.560;2022-12-18T18:31:52;21.65;;;11.90;;
31095;SDS011;17749;51.962;8.560;2022-12-18T18:34:20;24.35;;;11.10;;
31095;SDS011;17749;51.962;8.560;2022-12-18T18:36:49;22.42;;;12.50;;
31095;SDS011;17749;51.962;8.560;2022-12-18T18:39:16;26.98;;;13.07;;
31095;SDS011;17749;51.962;8.560;2022-12-18T18:41:45;24.95;;;12.73;;
31095;SDS011;17749;51.962;8.560;2022-12-18T18:44:14;29.55;;;13.25;;
31095;SDS011;17749;51.962;8.560;2022-12-18T18:46:42;25.10;;;13.15;;
31095;SDS011;17749;51.962;8.560;2022-12-18T18:49:09;24.00;;;12.40;;
31095;SDS011;17749;51.962;8.560;2022-12-18T18:51:38;27.88;;;13.30;;
31095;SDS011;17749;51.962;8.560;2022-12-18T18:54:05;27.05;;;13.90;;
31095;SDS011;17749;51.962;8.560;2022-12-18T18:56:32;31.95;;;13.07;;
31095;SDS011;17749;51.962;8.560;2022-12-18T18:59:19;25.23;;;13.45;;
31095;SDS011;17749;51.962;8.560;2022-12-18T19:01:56;31.05;;;13.82;;
31095;SDS011;17749;51.962;8.560;2022-12-18T19:04:23;31.67;;;15.68;;
31095;SDS011;17749;51.962;8.560;2022-12-18T19:06:51;32.00;;;14.70;;
31095;SDS011;17749;51.962;8.560;2022-12-18T19:09:20;30.07;;;16.23;;
31095;SDS011;17749;51.962;8.560;2022-12-18T19:11:46;33.42;;;14.30;;
31095;SDS011;17749;51.962;8.560;2022-12-18T19:14:32;31.23;;;14.63;;
31095;SDS011;17749;51.962;8.560;2022-12-18T19:16:59;36.35;;;16.15;;
31095;SDS011;17749;51.962;8.560;2022-12-18T19:19:26;33.03;;;15.52;;
31095;SDS011;17749;51.962;8.560;2022-12-18T19:21:53;28.95;;;15.32;;
31095;SDS011;17749;51.962;8.560;2022-12-18T19:24:20;27.52;;;15.88;;
31095;SDS011;17749;51.962;8.560;2022-12-18T19:26:47;27.52;;;14.75;;
31095;SDS011;17749;51.962;8.560;2022-12-18T19:29:14;36.45;;;16.40;;
31095;SDS011;17749;51.962;8.560;2022-12-18T19:31:41;35.40;;;15.20;;
31095;SDS011;17749;51.962;8.560;2022-12-18T19:34:08;28.23;;;15.55;;
31095;SDS011;17749;51.962;8.560;2022-12-18T19:36:36;34.97;;;15.68;;
31095;SDS011;17749;51.962;8.560;2022-12-18T19:39:08;31.90;;;14.70;;
31095;SDS011;17749;51.962;8.560;2022-12-18T19:41:38;36.22;;;15.45;;
31095;SDS011;17749;51.962;8.560;2022-12-18T19:44:06;34.40;;;16.33;;
31095;SDS011;17749;51.962;8.560;2022-12-18T19:46:34;36.92;;;17.23;;
31095;SDS011;17749;51.962;8.560;2022-12-18T19:49:06;34.33;;;16.67;;
31095;SDS011;17749;51.962;8.560;2022-12-18T19:51:34;33.42;;;16.15;;
31095;SDS011;17749;51.962;8.560;2022-12-18T19:54:01;35.03;;;16.10;;
31095;SDS011;17749;51.962;8.560;2022-12-18T19:56:29;32.85;;;16.05;;
31095;SDS011;17749;51.962;8.560;2022-12-18T19:58:59;34.05;;;17.55;;
31095;SDS011;17749;51.962;8.560;2022-12-18T20:01:33;32.08;;;16.55;;
31095;SDS011;17749;51.962;8.560;2022-12-18T20:04:04;38.75;;;17.70;;
31095;SDS011;17749;51.962;8.560;2022-12-18T20:06:32;35.75;;;17.17;;
31095;SDS011;17749;51.962;8.560;2022-12-18T20:09:11;35.38;;;17.25;;
31095;SDS011;17749;51.962;8.560;2022-12-18T20:11:38;37.83;;;19.52;;
31095;SDS011;17749;51.962;8.560;2022-12-18T20:14:07;37.72;;;17.50;;
31095;SDS011;17749;51.962;8.560;2022-12-18T20:16:35;37.15;;;17.08;;
31095;SDS011;17749;51.962;8.560;2022-12-18T20:19:03;35.35;;;16.92;;
31095;SDS011;17749;51.962;8.560;2022-12-18T20:21:30;35.28;;;18.42;;
31095;SDS011;17749;51.962;8.560;2022-12-18T20:23:57;34.67;;;16.80;;
31095;SDS011;17749;51.962;8.560;2022-12-18T20:26:26;36.67;;;16.73;;
31095;SDS011;17749;51.962;8.560;2022-12-18T20:28:53;36.63;;;17.98;;
31095;SDS011;17749;51.962;8.560;2022-12-18T20:31:21;36.42;;;17.17;;
31095;SDS011;17749;51.962;8.560;2022-12-18T20:33:48;38.53;;;18.15;;
31095;SDS011;17749;51.962;8.560;2022-12-18T20:36:18;38.42;;;17.58;;
31095;SDS011;17749;51.962;8.560;2022-12-18T20:38:51;39.97;;;19.48;;
31095;SDS011;17749;51.962;8.560;2022-12-18T20:41:24;31.92;;;18.02;;
31095;SDS011;17749;51.962;8.560;2022-12-18T20:44:07;38.92;;;18.92;;
31095;SDS011;17749;51.962;8.560;2022-12-18T20:46:50;37.13;;;17.38;;
31095;SDS011;17749;51.962;8.560;2022-12-18T20:49:18;36.50;;;17.55;;
31095;SDS011;17749;51.962;8.560;2022-12-18T20:51:54;35.05;;;16.90;;
31095;SDS011;17749;51.962;8.560;2022-12-18T20:54:24;38.05;;;18.25;;
31095;SDS011;17749;51.962;8.560;2022-12-18T20:56:52;41.88;;;18.83;;
31095;SDS011;17749;51.962;8.560;2022-12-18T20:59:20;35.22;;;17.27;;
31095;SDS011;17749;51.962;8.560;2022-12-18T21:01:48;40.75;;;19.40;;
31095;SDS011;17749;51.962;8.560;2022-12-18T21:04:19;38.88;;;17.20;;
31095;SDS011;17749;51.962;8.560;2022-12-18T21:06:47;36.28;;;16.90;;
31095;SDS011;17749;51.962;8.560;2022-12-18T21:09:26;40.38;;;19.45;;
31095;SDS011;17749;51.962;8.560;2022-12-18T21:14:41;39.22;;;18.50;;
31095;SDS011;17749;51.962;8.560;2022-12-18T21:17:11;38.33;;;18.30;;
31095;SDS011;17749;51.962;8.560;2022-12-18T21:19:38;44.50;;;19.98;;
31095;SDS011;17749;51.962;8.560;2022-12-18T21:22:06;42.78;;;19.05;;
31095;SDS011;17749;51.962;8.560;2022-12-18T21:24:33;39.75;;;19.38;;
31095;SDS011;17749;51.962;8.560;2022-12-18T21:27:00;35.17;;;18.02;;
31095;SDS011;17749;51.962;8.560;2022-12-18T21:29:27;38.05;;;18.50;;
